sensor_id;sensor_type;location;lat;lon;timestamp;P1;durP1;ratioP1;P2;durP2;ratioP2
20870;SDS011;10595;51.218;3.452;2023-04-09T00:00:07;73.00;;;42.67;;
20870;SDS011;10595;51.218;3.452;2023-04-09T00:02:34;90.77;;;46.97;;
20870;SDS011;10595;51.218;3.452;2023-04-09T00:05:00;80.80;;;44.23;;
20870;SDS011;10595;51.218;3.452;2023-04-09T00:07:26;69.07;;;37.87;;
20870;SDS011;10595;51.218;3.452;2023-04-09T00:09:52;63.80;;;37.63;;
20870;SDS011;10595;51.218;3.452;2023-04-09T00:12:18;60.70;;;35.27;;
20870;SDS011;10595;51.218;3.452;2023-04-09T00:14:44;63.17;;;36.70;;
20870;SDS011;10595;51.218;3.452;2023-04-09T00:17:10;60.13;;;36.67;;
20870;SDS011;10595;51.218;3.452;2023-04-09T00:19:36;66.27;;;37.60;;
20870;SDS011;10595;51.218;3.452;2023-04-09T00:22:02;64.30;;;36.80;;
20870;SDS011;10595;51.218;3.452;2023-04-09T00:24:28;63.87;;;36.53;;
20870;SDS011;10595;51.218;3.452;2023-04-09T00:26:54;64.23;;;36.77;;
20870;SDS011;10595;51.218;3.452;2023-04-09T00:29:20;63.63;;;36.00;;
20870;SDS011;10595;51.218;3.452;2023-04-09T00:31:46;65.37;;;35.83;;
20870;SDS011;10595;51.218;3.452;2023-04-09T00:34:12;62.03;;;36.03;;
20870;SDS011;10595;51.218;3.452;2023-04-09T00:36:38;61.33;;;34.80;;
20870;SDS011;10595;51.218;3.452;2023-04-09T00:39:04;64.83;;;35.20;;
20870;SDS011;10595;51.218;3.452;2023-04-09T00:41:30;65.60;;;35.67;;
20870;SDS011;10595;51.218;3.452;2023-04-09T00:43:56;62.70;;;33.87;;
20870;SDS011;10595;51.218;3.452;2023-04-09T00:46:22;70.80;;;37.63;;
20870;SDS011;10595;51.218;3.452;2023-04-09T00:48:48;64.23;;;35.47;;
20870;SDS011;10595;51.218;3.452;2023-04-09T00:51:15;65.50;;;37.37;;
20870;SDS011;10595;51.218;3.452;2023-04-09T00:53:41;69.87;;;38.13;;
20870;SDS011;10595;51.218;3.452;2023-04-09T00:56:07;60.20;;;34.40;;
20870;SDS011;10595;51.218;3.452;2023-04-09T00:58:34;65.17;;;36.37;;
20870;SDS011;10595;51.218;3.452;2023-04-09T01:01:00;61.80;;;34.33;;
20870;SDS011;10595;51.218;3.452;2023-04-09T01:03:26;56.60;;;33.60;;
20870;SDS011;10595;51.218;3.452;2023-04-09T01:05:59;67.47;;;37.40;;
20870;SDS011;10595;51.218;3.452;2023-04-09T01:13:48;61.47;;;34.33;;
20870;SDS011;10595;51.218;3.452;2023-04-09T01:16:15;59.77;;;33.37;;
20870;SDS011;10595;51.218;3.452;2023-04-09T01:18:46;56.00;;;32.93;;
20870;SDS011;10595;51.218;3.452;2023-04-09T01:21:16;55.00;;;32.43;;
20870;SDS011;10595;51.218;3.452;2023-04-09T01:26:28;55.17;;;32.30;;
20870;SDS011;10595;51.218;3.452;2023-04-09T01:28:58;45.87;;;27.77;;
20870;SDS011;10595;51.218;3.452;2023-04-09T01:31:35;44.10;;;26.43;;
20870;SDS011;10595;51.218;3.452;2023-04-09T01:34:01;51.50;;;28.40;;
20870;SDS011;10595;51.218;3.452;2023-04-09T01:36:28;48.07;;;29.57;;
20870;SDS011;10595;51.218;3.452;2023-04-09T01:38:56;45.27;;;27.93;;
20870;SDS011;10595;51.218;3.452;2023-04-09T01:41:22;46.43;;;27.57;;
20870;SDS011;10595;51.218;3.452;2023-04-09T01:43:50;52.83;;;29.57;;
20870;SDS011;10595;51.218;3.452;2023-04-09T01:46:17;56.43;;;29.57;;
20870;SDS011;10595;51.218;3.452;2023-04-09T01:48:43;44.80;;;27.23;;
20870;SDS011;10595;51.218;3.452;2023-04-09T01:51:10;37.60;;;23.07;;
20870;SDS011;10595;51.218;3.452;2023-04-09T01:53:38;45.00;;;27.17;;
20870;SDS011;10595;51.218;3.452;2023-04-09T01:56:05;43.53;;;26.20;;
20870;SDS011;10595;51.218;3.452;2023-04-09T01:58:31;46.70;;;27.70;;
20870;SDS011;10595;51.218;3.452;2023-04-09T02:01:32;45.13;;;26.67;;
20870;SDS011;10595;51.218;3.452;2023-04-09T02:03:55;49.73;;;29.03;;
20870;SDS011;10595;51.218;3.452;2023-04-09T02:06:30;57.53;;;29.77;;
20870;SDS011;10595;51.218;3.452;2023-04-09T02:08:58;52.37;;;30.47;;
20870;SDS011;10595;51.218;3.452;2023-04-09T02:11:25;46.90;;;28.23;;
20870;SDS011;10595;51.218;3.452;2023-04-09T02:13:53;47.37;;;28.00;;
20870;SDS011;10595;51.218;3.452;2023-04-09T02:16:20;53.30;;;30.03;;
20870;SDS011;10595;51.218;3.452;2023-04-09T02:18:46;47.03;;;27.10;;
20870;SDS011;10595;51.218;3.452;2023-04-09T02:21:12;51.03;;;28.87;;
20870;SDS011;10595;51.218;3.452;2023-04-09T02:23:38;47.00;;;28.80;;
20870;SDS011;10595;51.218;3.452;2023-04-09T02:26:04;48.00;;;28.27;;
20870;SDS011;10595;51.218;3.452;2023-04-09T02:28:30;46.43;;;26.53;;
20870;SDS011;10595;51.218;3.452;2023-04-09T02:30:56;41.70;;;24.73;;
20870;SDS011;10595;51.218;3.452;2023-04-09T02:33:22;41.23;;;24.53;;
20870;SDS011;10595;51.218;3.452;2023-04-09T02:35:48;44.50;;;27.10;;
20870;SDS011;10595;51.218;3.452;2023-04-09T02:38:14;48.13;;;27.40;;
20870;SDS011;10595;51.218;3.452;2023-04-09T02:40:40;46.77;;;28.20;;
20870;SDS011;10595;51.218;3.452;2023-04-09T02:43:07;44.80;;;26.40;;
20870;SDS011;10595;51.218;3.452;2023-04-09T02:45:33;45.43;;;26.40;;
20870;SDS011;10595;51.218;3.452;2023-04-09T02:47:59;42.57;;;26.53;;
20870;SDS011;10595;51.218;3.452;2023-04-09T02:50:25;46.17;;;26.03;;
20870;SDS011;10595;51.218;3.452;2023-04-09T02:52:51;43.30;;;26.80;;
20870;SDS011;10595;51.218;3.452;2023-04-09T02:55:17;45.37;;;26.93;;
20870;SDS011;10595;51.218;3.452;2023-04-09T02:57:43;44.10;;;26.73;;
20870;SDS011;10595;51.218;3.452;2023-04-09T03:00:10;42.30;;;25.20;;
20870;SDS011;10595;51.218;3.452;2023-04-09T03:02:36;33.40;;;22.27;;
20870;SDS011;10595;51.218;3.452;2023-04-09T03:05:02;41.47;;;22.97;;
20870;SDS011;10595;51.218;3.452;2023-04-09T03:07:28;39.37;;;25.17;;
20870;SDS011;10595;51.218;3.452;2023-04-09T03:09:54;34.87;;;22.77;;
20870;SDS011;10595;51.218;3.452;2023-04-09T03:12:20;44.57;;;26.30;;
20870;SDS011;10595;51.218;3.452;2023-04-09T03:14:46;42.80;;;26.27;;
20870;SDS011;10595;51.218;3.452;2023-04-09T03:17:12;41.93;;;25.80;;
20870;SDS011;10595;51.218;3.452;2023-04-09T03:19:38;39.63;;;24.60;;
20870;SDS011;10595;51.218;3.452;2023-04-09T03:22:04;41.93;;;25.63;;
20870;SDS011;10595;51.218;3.452;2023-04-09T03:24:31;40.63;;;25.30;;
20870;SDS011;10595;51.218;3.452;2023-04-09T03:26:57;40.13;;;24.63;;
20870;SDS011;10595;51.218;3.452;2023-04-09T03:29:23;38.90;;;24.27;;
20870;SDS011;10595;51.218;3.452;2023-04-09T03:31:50;40.70;;;25.20;;
20870;SDS011;10595;51.218;3.452;2023-04-09T03:34:16;41.83;;;25.13;;
20870;SDS011;10595;51.218;3.452;2023-04-09T03:36:42;42.17;;;25.63;;
20870;SDS011;10595;51.218;3.452;2023-04-09T03:39:08;39.50;;;24.87;;
20870;SDS011;10595;51.218;3.452;2023-04-09T03:41:34;44.80;;;27.90;;
20870;SDS011;10595;51.218;3.452;2023-04-09T03:44:00;50.17;;;29.53;;
20870;SDS011;10595;51.218;3.452;2023-04-09T03:46:26;50.90;;;29.67;;
20870;SDS011;10595;51.218;3.452;2023-04-09T03:48:52;57.20;;;32.40;;
20870;SDS011;10595;51.218;3.452;2023-04-09T03:51:18;52.30;;;30.47;;
20870;SDS011;10595;51.218;3.452;2023-04-09T03:53:44;46.30;;;28.87;;
20870;SDS011;10595;51.218;3.452;2023-04-09T03:56:10;50.47;;;29.57;;
20870;SDS011;10595;51.218;3.452;2023-04-09T03:58:36;49.00;;;29.50;;
20870;SDS011;10595;51.218;3.452;2023-04-09T04:01:02;51.07;;;29.53;;
20870;SDS011;10595;51.218;3.452;2023-04-09T04:03:28;43.07;;;26.63;;
20870;SDS011;10595;51.218;3.452;2023-04-09T04:06:03;41.33;;;25.40;;
20870;SDS011;10595;51.218;3.452;2023-04-09T04:08:29;42.83;;;25.33;;
20870;SDS011;10595;51.218;3.452;2023-04-09T04:10:57;39.50;;;23.63;;
20870;SDS011;10595;51.218;3.452;2023-04-09T04:13:27;32.47;;;20.40;;
20870;SDS011;10595;51.218;3.452;2023-04-09T04:15:53;34.93;;;21.60;;
20870;SDS011;10595;51.218;3.452;2023-04-09T04:18:19;41.53;;;24.27;;
20870;SDS011;10595;51.218;3.452;2023-04-09T04:20:45;48.23;;;25.60;;
20870;SDS011;10595;51.218;3.452;2023-04-09T04:23:11;42.03;;;25.17;;
20870;SDS011;10595;51.218;3.452;2023-04-09T04:25:40;47.83;;;26.37;;
20870;SDS011;10595;51.218;3.452;2023-04-09T04:28:06;44.57;;;24.33;;
20870;SDS011;10595;51.218;3.452;2023-04-09T04:30:33;52.93;;;28.07;;
20870;SDS011;10595;51.218;3.452;2023-04-09T04:32:59;50.93;;;27.93;;
20870;SDS011;10595;51.218;3.452;2023-04-09T04:35:25;52.43;;;28.47;;
20870;SDS011;10595;51.218;3.452;2023-04-09T04:37:51;50.60;;;27.47;;
20870;SDS011;10595;51.218;3.452;2023-04-09T04:40:17;55.17;;;28.17;;
20870;SDS011;10595;51.218;3.452;2023-04-09T04:42:43;51.90;;;27.97;;
20870;SDS011;10595;51.218;3.452;2023-04-09T04:45:09;60.10;;;30.80;;
20870;SDS011;10595;51.218;3.452;2023-04-09T04:47:35;69.00;;;32.60;;
20870;SDS011;10595;51.218;3.452;2023-04-09T04:50:01;74.83;;;36.40;;
20870;SDS011;10595;51.218;3.452;2023-04-09T04:52:27;65.63;;;35.03;;
20870;SDS011;10595;51.218;3.452;2023-04-09T04:54:53;62.17;;;32.80;;
20870;SDS011;10595;51.218;3.452;2023-04-09T04:57:19;65.40;;;33.00;;
20870;SDS011;10595;51.218;3.452;2023-04-09T04:59:45;72.37;;;36.63;;
20870;SDS011;10595;51.218;3.452;2023-04-09T05:02:11;64.73;;;33.60;;
20870;SDS011;10595;51.218;3.452;2023-04-09T05:04:37;61.33;;;32.87;;
20870;SDS011;10595;51.218;3.452;2023-04-09T05:07:03;60.07;;;31.67;;
20870;SDS011;10595;51.218;3.452;2023-04-09T05:09:29;61.67;;;32.17;;
20870;SDS011;10595;51.218;3.452;2023-04-09T05:11:55;60.57;;;31.63;;
20870;SDS011;10595;51.218;3.452;2023-04-09T05:14:21;64.13;;;33.57;;
20870;SDS011;10595;51.218;3.452;2023-04-09T05:16:48;69.93;;;35.03;;
20870;SDS011;10595;51.218;3.452;2023-04-09T05:19:14;60.77;;;32.10;;
20870;SDS011;10595;51.218;3.452;2023-04-09T05:21:40;51.57;;;29.50;;
20870;SDS011;10595;51.218;3.452;2023-04-09T05:24:06;61.23;;;31.77;;
20870;SDS011;10595;51.218;3.452;2023-04-09T05:26:32;58.50;;;31.37;;
20870;SDS011;10595;51.218;3.452;2023-04-09T05:28:58;59.63;;;30.97;;
20870;SDS011;10595;51.218;3.452;2023-04-09T05:31:24;61.07;;;31.67;;
20870;SDS011;10595;51.218;3.452;2023-04-09T05:33:50;57.43;;;32.30;;
20870;SDS011;10595;51.218;3.452;2023-04-09T05:36:17;74.20;;;36.03;;
20870;SDS011;10595;51.218;3.452;2023-04-09T05:38:44;63.50;;;34.37;;
20870;SDS011;10595;51.218;3.452;2023-04-09T05:41:10;74.03;;;36.57;;
20870;SDS011;10595;51.218;3.452;2023-04-09T05:43:36;63.73;;;35.13;;
20870;SDS011;10595;51.218;3.452;2023-04-09T05:46:03;66.37;;;35.97;;
20870;SDS011;10595;51.218;3.452;2023-04-09T05:48:29;81.07;;;39.73;;
20870;SDS011;10595;51.218;3.452;2023-04-09T05:50:55;89.90;;;42.93;;
20870;SDS011;10595;51.218;3.452;2023-04-09T05:53:21;85.43;;;43.30;;
20870;SDS011;10595;51.218;3.452;2023-04-09T05:55:47;86.90;;;42.90;;
20870;SDS011;10595;51.218;3.452;2023-04-09T05:58:13;91.93;;;45.50;;
20870;SDS011;10595;51.218;3.452;2023-04-09T06:00:40;104.37;;;49.27;;
20870;SDS011;10595;51.218;3.452;2023-04-09T06:03:07;86.73;;;44.40;;
20870;SDS011;10595;51.218;3.452;2023-04-09T06:05:33;90.17;;;45.67;;
20870;SDS011;10595;51.218;3.452;2023-04-09T06:07:59;85.47;;;44.37;;
20870;SDS011;10595;51.218;3.452;2023-04-09T06:10:25;90.90;;;45.70;;
20870;SDS011;10595;51.218;3.452;2023-04-09T06:12:51;90.53;;;45.87;;
20870;SDS011;10595;51.218;3.452;2023-04-09T06:15:17;88.37;;;47.00;;
20870;SDS011;10595;51.218;3.452;2023-04-09T06:17:43;96.67;;;48.57;;
20870;SDS011;10595;51.218;3.452;2023-04-09T06:20:10;98.57;;;48.40;;
20870;SDS011;10595;51.218;3.452;2023-04-09T06:22:36;100.57;;;50.70;;
20870;SDS011;10595;51.218;3.452;2023-04-09T06:25:02;103.47;;;51.63;;
20870;SDS011;10595;51.218;3.452;2023-04-09T06:27:28;107.83;;;51.60;;
20870;SDS011;10595;51.218;3.452;2023-04-09T06:29:54;109.80;;;52.70;;
20870;SDS011;10595;51.218;3.452;2023-04-09T06:32:20;108.63;;;54.80;;
20870;SDS011;10595;51.218;3.452;2023-04-09T06:34:46;111.63;;;53.97;;
20870;SDS011;10595;51.218;3.452;2023-04-09T06:37:12;116.00;;;56.67;;
20870;SDS011;10595;51.218;3.452;2023-04-09T06:39:39;134.53;;;62.27;;
20870;SDS011;10595;51.218;3.452;2023-04-09T06:42:05;128.30;;;61.80;;
20870;SDS011;10595;51.218;3.452;2023-04-09T06:44:34;123.40;;;59.67;;
20870;SDS011;10595;51.218;3.452;2023-04-09T06:47:00;126.40;;;60.93;;
20870;SDS011;10595;51.218;3.452;2023-04-09T06:49:26;128.87;;;61.40;;
20870;SDS011;10595;51.218;3.452;2023-04-09T06:51:52;122.53;;;60.70;;
20870;SDS011;10595;51.218;3.452;2023-04-09T06:54:19;123.40;;;60.03;;
20870;SDS011;10595;51.218;3.452;2023-04-09T06:56:45;122.27;;;59.23;;
20870;SDS011;10595;51.218;3.452;2023-04-09T06:59:11;117.47;;;59.97;;
20870;SDS011;10595;51.218;3.452;2023-04-09T07:01:37;114.07;;;58.93;;
20870;SDS011;10595;51.218;3.452;2023-04-09T07:04:04;115.60;;;58.77;;
20870;SDS011;10595;51.218;3.452;2023-04-09T07:06:30;113.53;;;56.83;;
20870;SDS011;10595;51.218;3.452;2023-04-09T07:08:56;115.73;;;56.67;;
20870;SDS011;10595;51.218;3.452;2023-04-09T07:11:22;108.20;;;56.90;;
20870;SDS011;10595;51.218;3.452;2023-04-09T07:13:49;108.47;;;55.93;;
20870;SDS011;10595;51.218;3.452;2023-04-09T07:16:15;111.13;;;55.00;;
20870;SDS011;10595;51.218;3.452;2023-04-09T07:18:41;107.10;;;56.13;;
20870;SDS011;10595;51.218;3.452;2023-04-09T07:21:07;105.57;;;52.73;;
20870;SDS011;10595;51.218;3.452;2023-04-09T07:23:33;107.97;;;54.00;;
20870;SDS011;10595;51.218;3.452;2023-04-09T07:26:03;105.93;;;54.17;;
20870;SDS011;10595;51.218;3.452;2023-04-09T07:28:29;108.43;;;54.13;;
20870;SDS011;10595;51.218;3.452;2023-04-09T07:30:55;113.20;;;56.03;;
20870;SDS011;10595;51.218;3.452;2023-04-09T07:33:21;110.70;;;54.40;;
20870;SDS011;10595;51.218;3.452;2023-04-09T07:35:47;111.23;;;55.67;;
20870;SDS011;10595;51.218;3.452;2023-04-09T07:38:13;108.67;;;55.73;;
20870;SDS011;10595;51.218;3.452;2023-04-09T07:40:40;107.60;;;53.97;;
20870;SDS011;10595;51.218;3.452;2023-04-09T07:43:06;101.53;;;53.43;;
20870;SDS011;10595;51.218;3.452;2023-04-09T07:45:32;94.73;;;50.23;;
20870;SDS011;10595;51.218;3.452;2023-04-09T07:47:58;95.67;;;50.33;;
20870;SDS011;10595;51.218;3.452;2023-04-09T07:50:24;104.13;;;51.13;;
20870;SDS011;10595;51.218;3.452;2023-04-09T07:52:51;90.20;;;50.87;;
20870;SDS011;10595;51.218;3.452;2023-04-09T07:55:17;90.23;;;50.13;;
20870;SDS011;10595;51.218;3.452;2023-04-09T07:57:44;87.00;;;46.97;;
20870;SDS011;10595;51.218;3.452;2023-04-09T08:00:10;84.63;;;45.40;;
20870;SDS011;10595;51.218;3.452;2023-04-09T08:02:36;82.63;;;46.40;;
20870;SDS011;10595;51.218;3.452;2023-04-09T08:05:02;75.60;;;43.67;;
20870;SDS011;10595;51.218;3.452;2023-04-09T08:07:28;80.83;;;44.23;;
20870;SDS011;10595;51.218;3.452;2023-04-09T08:09:54;85.10;;;45.57;;
20870;SDS011;10595;51.218;3.452;2023-04-09T08:12:20;74.80;;;42.60;;
20870;SDS011;10595;51.218;3.452;2023-04-09T08:14:46;77.30;;;42.90;;
20870;SDS011;10595;51.218;3.452;2023-04-09T08:17:12;68.93;;;40.97;;
20870;SDS011;10595;51.218;3.452;2023-04-09T08:19:38;69.10;;;39.50;;
20870;SDS011;10595;51.218;3.452;2023-04-09T08:22:05;66.67;;;38.23;;
20870;SDS011;10595;51.218;3.452;2023-04-09T08:24:31;68.93;;;40.27;;
20870;SDS011;10595;51.218;3.452;2023-04-09T08:26:57;63.80;;;38.37;;
20870;SDS011;10595;51.218;3.452;2023-04-09T08:29:23;63.57;;;36.93;;
20870;SDS011;10595;51.218;3.452;2023-04-09T08:31:49;62.13;;;37.23;;
20870;SDS011;10595;51.218;3.452;2023-04-09T08:34:15;63.60;;;37.67;;
20870;SDS011;10595;51.218;3.452;2023-04-09T08:36:44;61.53;;;37.00;;
20870;SDS011;10595;51.218;3.452;2023-04-09T08:39:11;61.53;;;37.07;;
20870;SDS011;10595;51.218;3.452;2023-04-09T08:41:39;64.37;;;37.33;;
20870;SDS011;10595;51.218;3.452;2023-04-09T08:44:08;62.83;;;38.47;;
20870;SDS011;10595;51.218;3.452;2023-04-09T08:46:34;63.77;;;38.73;;
20870;SDS011;10595;51.218;3.452;2023-04-09T08:49:01;66.87;;;40.43;;
20870;SDS011;10595;51.218;3.452;2023-04-09T08:51:27;111.73;;;57.70;;
20870;SDS011;10595;51.218;3.452;2023-04-09T08:53:59;114.33;;;56.40;;
20870;SDS011;10595;51.218;3.452;2023-04-09T08:56:25;113.60;;;57.23;;
20870;SDS011;10595;51.218;3.452;2023-04-09T08:58:52;117.07;;;59.37;;
20870;SDS011;10595;51.218;3.452;2023-04-09T09:01:19;114.93;;;57.17;;
20870;SDS011;10595;51.218;3.452;2023-04-09T09:04:01;110.90;;;55.93;;
20870;SDS011;10595;51.218;3.452;2023-04-09T09:06:37;101.07;;;50.63;;
20870;SDS011;10595;51.218;3.452;2023-04-09T09:09:06;94.27;;;49.43;;
20870;SDS011;10595;51.218;3.452;2023-04-09T09:11:33;105.47;;;54.03;;
20870;SDS011;10595;51.218;3.452;2023-04-09T09:14:00;101.37;;;50.17;;
20870;SDS011;10595;51.218;3.452;2023-04-09T09:16:26;88.93;;;46.50;;
20870;SDS011;10595;51.218;3.452;2023-04-09T09:18:52;88.77;;;48.43;;
20870;SDS011;10595;51.218;3.452;2023-04-09T09:21:20;92.07;;;47.00;;
20870;SDS011;10595;51.218;3.452;2023-04-09T09:23:46;91.20;;;48.00;;
20870;SDS011;10595;51.218;3.452;2023-04-09T09:26:15;90.50;;;48.23;;
20870;SDS011;10595;51.218;3.452;2023-04-09T09:28:42;89.90;;;48.57;;
20870;SDS011;10595;51.218;3.452;2023-04-09T09:31:10;92.43;;;48.30;;
20870;SDS011;10595;51.218;3.452;2023-04-09T09:33:36;91.90;;;48.03;;
20870;SDS011;10595;51.218;3.452;2023-04-09T09:36:02;90.60;;;48.17;;
20870;SDS011;10595;51.218;3.452;2023-04-09T09:38:29;91.77;;;47.80;;
20870;SDS011;10595;51.218;3.452;2023-04-09T09:40:56;88.83;;;47.20;;
20870;SDS011;10595;51.218;3.452;2023-04-09T09:43:22;85.90;;;45.87;;
20870;SDS011;10595;51.218;3.452;2023-04-09T09:45:49;87.03;;;46.23;;
20870;SDS011;10595;51.218;3.452;2023-04-09T09:48:15;86.20;;;45.10;;
20870;SDS011;10595;51.218;3.452;2023-04-09T09:50:41;89.00;;;47.23;;
20870;SDS011;10595;51.218;3.452;2023-04-09T09:53:08;86.03;;;44.50;;
20870;SDS011;10595;51.218;3.452;2023-04-09T09:55:38;85.13;;;46.40;;
20870;SDS011;10595;51.218;3.452;2023-04-09T09:58:11;89.93;;;46.43;;
20870;SDS011;10595;51.218;3.452;2023-04-09T10:00:40;88.53;;;45.13;;
20870;SDS011;10595;51.218;3.452;2023-04-09T10:03:13;86.87;;;45.83;;
20870;SDS011;10595;51.218;3.452;2023-04-09T10:05:40;94.90;;;47.63;;
20870;SDS011;10595;51.218;3.452;2023-04-09T10:08:06;93.83;;;45.77;;
20870;SDS011;10595;51.218;3.452;2023-04-09T10:10:32;90.53;;;45.63;;
20870;SDS011;10595;51.218;3.452;2023-04-09T10:12:59;94.33;;;45.07;;
20870;SDS011;10595;51.218;3.452;2023-04-09T10:15:27;89.97;;;46.10;;
20870;SDS011;10595;51.218;3.452;2023-04-09T10:17:54;96.30;;;48.73;;
20870;SDS011;10595;51.218;3.452;2023-04-09T10:20:27;93.27;;;48.47;;
20870;SDS011;10595;51.218;3.452;2023-04-09T10:22:57;93.53;;;47.87;;
20870;SDS011;10595;51.218;3.452;2023-04-09T10:25:24;88.90;;;46.03;;
20870;SDS011;10595;51.218;3.452;2023-04-09T10:27:59;98.47;;;48.97;;
20870;SDS011;10595;51.218;3.452;2023-04-09T10:30:35;100.70;;;49.67;;
20870;SDS011;10595;51.218;3.452;2023-04-09T10:33:11;98.10;;;48.70;;
20870;SDS011;10595;51.218;3.452;2023-04-09T10:35:37;96.33;;;49.00;;
20870;SDS011;10595;51.218;3.452;2023-04-09T10:38:07;103.47;;;48.77;;
20870;SDS011;10595;51.218;3.452;2023-04-09T10:40:34;92.33;;;44.80;;
20870;SDS011;10595;51.218;3.452;2023-04-09T10:43:00;78.47;;;41.17;;
20870;SDS011;10595;51.218;3.452;2023-04-09T10:45:37;82.47;;;41.97;;
20870;SDS011;10595;51.218;3.452;2023-04-09T10:48:04;78.03;;;41.57;;
20870;SDS011;10595;51.218;3.452;2023-04-09T10:50:31;84.43;;;43.13;;
20870;SDS011;10595;51.218;3.452;2023-04-09T10:53:00;73.27;;;38.93;;
20870;SDS011;10595;51.218;3.452;2023-04-09T10:58:01;73.90;;;38.87;;
20870;SDS011;10595;51.218;3.452;2023-04-09T11:00:28;69.97;;;37.73;;
20870;SDS011;10595;51.218;3.452;2023-04-09T11:07:53;48.80;;;28.63;;
20870;SDS011;10595;51.218;3.452;2023-04-09T11:10:22;55.77;;;33.17;;
20870;SDS011;10595;51.218;3.452;2023-04-09T11:12:48;57.53;;;33.97;;
20870;SDS011;10595;51.218;3.452;2023-04-09T11:15:14;55.33;;;33.13;;
20870;SDS011;10595;51.218;3.452;2023-04-09T11:17:41;52.83;;;32.33;;
20870;SDS011;10595;51.218;3.452;2023-04-09T11:20:08;54.67;;;32.50;;
20870;SDS011;10595;51.218;3.452;2023-04-09T11:22:34;46.63;;;29.87;;
20870;SDS011;10595;51.218;3.452;2023-04-09T11:25:00;36.07;;;25.47;;
20870;SDS011;10595;51.218;3.452;2023-04-09T11:27:27;33.37;;;23.17;;
20870;SDS011;10595;51.218;3.452;2023-04-09T11:29:56;31.47;;;22.53;;
20870;SDS011;10595;51.218;3.452;2023-04-09T11:32:27;32.23;;;23.13;;
20870;SDS011;10595;51.218;3.452;2023-04-09T11:34:53;38.47;;;25.10;;
20870;SDS011;10595;51.218;3.452;2023-04-09T11:37:21;35.70;;;24.07;;
20870;SDS011;10595;51.218;3.452;2023-04-09T11:39:47;36.93;;;26.00;;
20870;SDS011;10595;51.218;3.452;2023-04-09T11:42:18;32.97;;;24.17;;
20870;SDS011;10595;51.218;3.452;2023-04-09T11:44:44;36.67;;;24.77;;
20870;SDS011;10595;51.218;3.452;2023-04-09T11:47:11;29.80;;;21.77;;
20870;SDS011;10595;51.218;3.452;2023-04-09T11:49:38;28.13;;;21.53;;
20870;SDS011;10595;51.218;3.452;2023-04-09T11:52:04;30.20;;;21.60;;
20870;SDS011;10595;51.218;3.452;2023-04-09T11:54:30;32.30;;;23.77;;
20870;SDS011;10595;51.218;3.452;2023-04-09T11:57:00;36.60;;;25.50;;
20870;SDS011;10595;51.218;3.452;2023-04-09T11:59:28;39.10;;;26.50;;
20870;SDS011;10595;51.218;3.452;2023-04-09T12:01:56;36.87;;;26.37;;
20870;SDS011;10595;51.218;3.452;2023-04-09T12:04:22;37.17;;;26.43;;
20870;SDS011;10595;51.218;3.452;2023-04-09T12:06:48;35.67;;;24.87;;
20870;SDS011;10595;51.218;3.452;2023-04-09T12:09:14;35.50;;;26.07;;
20870;SDS011;10595;51.218;3.452;2023-04-09T12:11:43;34.93;;;25.07;;
20870;SDS011;10595;51.218;3.452;2023-04-09T12:14:13;38.53;;;26.20;;
20870;SDS011;10595;51.218;3.452;2023-04-09T12:16:40;35.30;;;25.87;;
20870;SDS011;10595;51.218;3.452;2023-04-09T12:19:09;37.33;;;26.00;;
20870;SDS011;10595;51.218;3.452;2023-04-09T12:21:45;39.50;;;26.70;;
20870;SDS011;10595;51.218;3.452;2023-04-09T12:24:11;36.77;;;26.10;;
20870;SDS011;10595;51.218;3.452;2023-04-09T12:26:38;35.20;;;25.27;;
20870;SDS011;10595;51.218;3.452;2023-04-09T12:29:04;36.57;;;24.57;;
20870;SDS011;10595;51.218;3.452;2023-04-09T12:31:30;37.43;;;27.30;;
20870;SDS011;10595;51.218;3.452;2023-04-09T12:33:56;36.03;;;25.30;;
20870;SDS011;10595;51.218;3.452;2023-04-09T12:36:22;34.07;;;25.10;;
20870;SDS011;10595;51.218;3.452;2023-04-09T12:38:48;35.23;;;25.37;;
20870;SDS011;10595;51.218;3.452;2023-04-09T12:41:15;34.70;;;25.50;;
20870;SDS011;10595;51.218;3.452;2023-04-09T12:43:41;35.60;;;25.27;;
20870;SDS011;10595;51.218;3.452;2023-04-09T12:46:07;34.93;;;25.73;;
20870;SDS011;10595;51.218;3.452;2023-04-09T12:48:33;33.00;;;24.63;;
20870;SDS011;10595;51.218;3.452;2023-04-09T12:51:00;36.40;;;25.83;;
20870;SDS011;10595;51.218;3.452;2023-04-09T12:53:26;34.43;;;25.23;;
20870;SDS011;10595;51.218;3.452;2023-04-09T12:55:52;36.37;;;26.10;;
20870;SDS011;10595;51.218;3.452;2023-04-09T12:58:18;36.13;;;25.90;;
20870;SDS011;10595;51.218;3.452;2023-04-09T13:00:44;32.37;;;24.37;;
20870;SDS011;10595;51.218;3.452;2023-04-09T13:03:10;33.53;;;25.13;;
20870;SDS011;10595;51.218;3.452;2023-04-09T13:05:36;34.00;;;23.47;;
20870;SDS011;10595;51.218;3.452;2023-04-09T13:08:03;31.17;;;22.57;;
20870;SDS011;10595;51.218;3.452;2023-04-09T13:10:29;30.27;;;22.03;;
20870;SDS011;10595;51.218;3.452;2023-04-09T13:12:55;31.13;;;22.90;;
20870;SDS011;10595;51.218;3.452;2023-04-09T13:15:21;29.10;;;22.53;;
20870;SDS011;10595;51.218;3.452;2023-04-09T13:17:47;26.40;;;20.77;;
20870;SDS011;10595;51.218;3.452;2023-04-09T13:20:13;31.30;;;22.30;;
20870;SDS011;10595;51.218;3.452;2023-04-09T13:22:40;30.43;;;21.70;;
20870;SDS011;10595;51.218;3.452;2023-04-09T13:25:06;28.53;;;21.10;;
20870;SDS011;10595;51.218;3.452;2023-04-09T13:27:32;27.27;;;20.47;;
20870;SDS011;10595;51.218;3.452;2023-04-09T13:29:58;28.20;;;21.17;;
20870;SDS011;10595;51.218;3.452;2023-04-09T13:32:24;26.27;;;20.27;;
20870;SDS011;10595;51.218;3.452;2023-04-09T13:34:50;30.63;;;20.57;;
20870;SDS011;10595;51.218;3.452;2023-04-09T13:37:18;30.27;;;21.10;;
20870;SDS011;10595;51.218;3.452;2023-04-09T13:39:44;28.70;;;21.50;;
20870;SDS011;10595;51.218;3.452;2023-04-09T13:42:10;29.33;;;21.40;;
20870;SDS011;10595;51.218;3.452;2023-04-09T13:44:36;28.63;;;21.90;;
20870;SDS011;10595;51.218;3.452;2023-04-09T13:47:06;27.77;;;21.07;;
20870;SDS011;10595;51.218;3.452;2023-04-09T13:49:31;26.73;;;19.70;;
20870;SDS011;10595;51.218;3.452;2023-04-09T13:51:58;26.57;;;19.87;;
20870;SDS011;10595;51.218;3.452;2023-04-09T13:54:24;25.83;;;19.03;;
20870;SDS011;10595;51.218;3.452;2023-04-09T13:56:50;26.03;;;19.63;;
20870;SDS011;10595;51.218;3.452;2023-04-09T13:59:16;23.53;;;17.70;;
20870;SDS011;10595;51.218;3.452;2023-04-09T14:01:42;21.90;;;16.57;;
20870;SDS011;10595;51.218;3.452;2023-04-09T14:04:08;25.20;;;17.40;;
20870;SDS011;10595;51.218;3.452;2023-04-09T14:06:35;24.23;;;17.20;;
20870;SDS011;10595;51.218;3.452;2023-04-09T14:09:01;23.37;;;17.70;;
20870;SDS011;10595;51.218;3.452;2023-04-09T14:11:27;23.63;;;17.67;;
20870;SDS011;10595;51.218;3.452;2023-04-09T14:13:53;22.73;;;17.03;;
20870;SDS011;10595;51.218;3.452;2023-04-09T14:16:19;22.37;;;17.17;;
20870;SDS011;10595;51.218;3.452;2023-04-09T14:18:46;21.50;;;15.53;;
20870;SDS011;10595;51.218;3.452;2023-04-09T14:21:12;21.23;;;15.93;;
20870;SDS011;10595;51.218;3.452;2023-04-09T14:23:38;21.67;;;15.93;;
20870;SDS011;10595;51.218;3.452;2023-04-09T14:26:05;20.70;;;16.37;;
20870;SDS011;10595;51.218;3.452;2023-04-09T14:28:31;22.30;;;15.70;;
20870;SDS011;10595;51.218;3.452;2023-04-09T14:30:57;21.27;;;15.37;;
20870;SDS011;10595;51.218;3.452;2023-04-09T14:33:24;22.53;;;15.80;;